createdAt,value
2017-03-17T00:07:28.793Z,8.93
2017-03-17T00:17:28.745Z,8.99
2017-03-17T00:27:28.875Z,9.02
2017-03-17T00:37:28.781Z,9.09
2017-03-17T00:47:28.742Z,9.21
2017-03-17T00:57:28.796Z,9.24
2017-03-17T01:07:28.750Z,9.3
2017-03-17T01:17:28.852Z,9.5
2017-03-17T01:27:28.766Z,9.78
2017-03-17T01:37:28.872Z,9.97
2017-03-17T01:47:28.818Z,10.25
2017-03-17T01:57:28.865Z,10.51
2017-03-17T02:07:28.840Z,10.68
2017-03-17T02:17:28.897Z,10.7
2017-03-17T02:27:28.848Z,10.58
2017-03-17T02:37:28.946Z,10.55
2017-03-17T02:47:28.889Z,10.15
2017-03-17T02:57:28.957Z,9.93
2017-03-17T03:07:28.899Z,10
2017-03-17T03:17:28.955Z,10.04
2017-03-17T03:27:28.920Z,10.01
2017-03-17T03:37:28.905Z,9.93
2017-03-17T03:47:28.941Z,10.06
2017-03-17T03:57:28.905Z,10.04
2017-03-17T04:07:28.950Z,9.97
2017-03-17T04:17:28.943Z,9.85
2017-03-17T04:27:29.027Z,9.96
2017-03-17T04:37:28.938Z,9.82
2017-03-17T04:47:29.041Z,9.96
2017-03-17T04:57:28.985Z,9.81
2017-03-17T05:07:29.054Z,9.78
2017-03-17T05:17:28.993Z,9.56
2017-03-17T05:27:29.071Z,9.24
2017-03-17T05:37:29.012Z,9.39
2017-03-17T05:47:29.096Z,9.38
2017-03-17T05:57:29.066Z,9.56
2017-03-17T06:07:29.041Z,9.7
2017-03-17T06:17:29.157Z,9.73
2017-03-17T06:27:29.059Z,9.96
2017-03-17T06:37:29.103Z,9.96
2017-03-17T06:47:29.057Z,9.97
2017-03-17T06:57:29.135Z,9.96
2017-03-17T07:07:29.087Z,9.78
2017-03-17T07:17:29.126Z,9.86
2017-03-17T07:27:29.079Z,9.96
2017-03-17T07:37:29.204Z,10.14
2017-03-17T07:47:29.107Z,10.59
2017-03-17T07:57:29.186Z,11.06
2017-03-17T08:07:29.133Z,11.31
2017-03-17T08:17:29.195Z,11.5
2017-03-17T08:27:29.146Z,11.56
2017-03-17T08:37:29.244Z,11.35
2017-03-17T08:47:29.186Z,11.53
2017-03-17T08:57:29.252Z,11.17
2017-03-17T09:07:29.191Z,10.92
2017-03-17T09:17:29.267Z,11.1
2017-03-17T09:27:29.223Z,11.24
2017-03-17T09:37:29.289Z,11.7
2017-03-17T09:47:29.279Z,12.37
2017-03-17T09:57:29.277Z,13.04
2017-03-17T10:07:29.321Z,13.04
2017-03-17T10:17:29.227Z,13.14
2017-03-17T10:27:29.229Z,13.65
2017-03-17T10:37:29.242Z,13.46
2017-03-17T10:47:29.257Z,13.02
2017-03-17T10:57:29.266Z,12.52
2017-03-17T11:07:29.300Z,12.51
2017-03-17T11:17:29.278Z,12.41
2017-03-17T11:27:29.275Z,12.41
2017-03-17T11:37:29.310Z,12.09
2017-03-17T11:47:29.301Z,12.31
2017-03-17T11:57:29.335Z,12.57
2017-03-17T12:07:29.380Z,12.88
2017-03-17T12:17:29.331Z,12.75
2017-03-17T12:27:29.368Z,13.02
2017-03-17T12:37:29.353Z,12.93
2017-03-17T12:47:29.355Z,12.77
2017-03-17T12:57:29.361Z,12.63
2017-03-17T13:07:29.471Z,13.21
2017-03-17T13:17:29.466Z,13.15
2017-03-17T13:27:29.471Z,12.66
2017-03-17T13:37:29.420Z,12.89
2017-03-17T13:47:29.428Z,12.95
2017-03-17T13:57:29.454Z,12.96
2017-03-17T14:07:29.460Z,12.81
2017-03-17T14:17:41.614Z,12.41
2017-03-17T14:27:29.544Z,12.12
2017-03-17T14:37:29.583Z,12.06
2017-03-17T14:47:29.992Z,11.97
2017-03-17T14:57:29.738Z,11.99
2017-03-17T15:07:29.898Z,12.11
2017-03-17T15:17:29.639Z,12.15
2017-03-17T15:27:29.563Z,12.3
2017-03-17T15:37:29.898Z,12.12
2017-03-17T15:47:29.532Z,12.01
2017-03-17T15:57:29.543Z,11.86
2017-03-17T16:07:29.560Z,11.62
2017-03-17T16:17:29.587Z,11.57
2017-03-17T16:27:29.570Z,11.68
2017-03-17T16:37:29.600Z,11.35
2017-03-17T16:47:29.718Z,11.35
2017-03-17T16:57:29.639Z,11.06
2017-03-17T17:07:29.638Z,10.63
2017-03-17T17:17:29.737Z,10.28
2017-03-17T17:27:29.698Z,10.12
2017-03-17T17:37:29.716Z,9.91
2017-03-17T17:47:29.662Z,9.82
2017-03-17T17:57:29.804Z,9.85
2017-03-17T18:07:29.772Z,9.64
2017-03-17T18:17:29.749Z,9.67
2017-03-17T18:27:29.734Z,9.6
2017-03-17T18:37:29.777Z,9.4
2017-03-17T18:47:29.950Z,9.25
2017-03-17T18:57:29.996Z,9.15
2017-03-17T19:07:29.980Z,9.1
2017-03-17T19:17:29.926Z,9.04
2017-03-17T19:27:29.976Z,8.9
2017-03-17T19:37:30.123Z,8.94
2017-03-17T19:47:30.178Z,8.75
2017-03-17T19:57:29.970Z,8.75
2017-03-17T20:07:29.991Z,8.9
2017-03-17T20:17:30.000Z,8.81
2017-03-17T20:27:30.309Z,8.91
2017-03-17T20:37:30.020Z,8.83
2017-03-17T20:47:31.123Z,8.81
2017-03-17T20:57:30.300Z,8.91
2017-03-17T21:07:30.016Z,8.99
2017-03-17T21:17:30.903Z,8.96
2017-03-17T21:27:30.681Z,8.93
2017-03-17T21:37:31.209Z,8.9
2017-03-17T21:47:31.795Z,8.79
2017-03-17T21:57:30.007Z,8.81
2017-03-17T22:07:30.456Z,8.73
2017-03-17T22:17:30.206Z,8.57
2017-03-17T22:27:30.139Z,8.5
2017-03-17T22:37:29.942Z,8.44
2017-03-17T22:47:30.132Z,8.48
2017-03-17T22:57:30.087Z,8.35
2017-03-17T23:07:30.032Z,8.14
2017-03-17T23:17:29.991Z,8.11
2017-03-17T23:27:29.935Z,8.02
2017-03-17T23:37:29.977Z,7.72
2017-03-17T23:47:29.944Z,7.55
2017-03-17T23:57:30.017Z,7.17
